Time;durP1;ratioP1;P1;durP2;ratioP2;P2;SDS_P1;SDS_P2;PMS_P1;PMS_P2;Temp;Humidity;BMP_temperature;BMP_pressure;BME280_temperature;BME280_humidity;BME280_pressure;Samples;Min_cycle;Max_cycle;Signal;HPM_P1;HPM_P2
2022/11/09 00:00:42;;;;;;;44.15;20.27;;;;;;;10.84;70.06;100263.38;7777033;32;38173;-89
2022/11/09 00:04:58;;;;;;;45.33;19.87;;;;;;;10.78;70.19;100270.72;7776755;32;39418;-89
2022/11/09 00:09:14;;;;;;;43.13;20.52;;;;;;;11.07;69.07;100257.53;7790156;32;40255;-90
2022/11/09 00:13:30;;;;;;;44.15;20.98;;;;;;;10.99;69.27;100251.75;7790340;32;38737;-91
2022/11/09 00:17:47;;;;;;;45.97;20.80;;;;;;;11.07;68.70;100251.25;7776570;32;36974;-90
2022/11/09 00:22:03;;;;;;;44.13;21.83;;;;;;;10.56;70.11;100249.00;7776615;32;39114;-91
2022/11/09 00:26:19;;;;;;;45.17;21.52;;;;;;;10.92;69.38;100245.69;7776089;32;39694;-90
2022/11/09 00:30:36;;;;;;;45.92;21.05;;;;;;;11.06;69.03;100246.91;7775181;32;38709;-89
2022/11/09 00:34:52;;;;;;;49.72;21.17;;;;;;;10.71;69.70;100251.03;7790101;32;37171;-90
2022/11/09 00:39:08;;;;;;;48.72;21.55;;;;;;;10.81;69.81;100250.25;7775951;32;39361;-90
2022/11/09 00:43:24;;;;;;;44.85;22.75;;;;;;;10.90;69.41;100248.72;7775743;32;40878;-90
2022/11/09 00:47:40;;;;;;;45.60;21.95;;;;;;;10.72;69.88;100252.66;7775583;32;37937;-90
2022/11/09 00:51:56;;;;;;;45.25;21.80;;;;;;;10.61;70.37;100262.69;7775735;32;37933;-90
2022/11/09 00:56:13;;;;;;;43.72;21.55;;;;;;;10.77;69.96;100254.63;7791635;32;39298;-89
2022/11/09 01:00:29;;;;;;;40.95;20.42;;;;;;;10.74;70.00;100245.03;7793261;32;40971;-89
2022/11/09 01:04:45;;;;;;;43.87;20.30;;;;;;;10.86;69.43;100240.19;7793477;32;38711;-89
2022/11/09 01:09:01;;;;;;;41.28;18.73;;;;;;;10.64;70.40;100239.50;7793504;32;37164;-90
2022/11/09 01:13:18;;;;;;;43.87;21.65;;;;;;;10.79;69.61;100233.34;7779461;32;39820;-90
2022/11/09 01:17:35;;;;;;;41.33;20.75;;;;;;;10.93;69.09;100228.25;7779383;32;40575;-90
2022/11/09 01:21:51;;;;;;;38.55;18.00;;;;;;;10.95;68.89;100231.53;7793049;32;38848;-90
2022/11/09 01:26:09;;;;;;;41.95;19.23;;;;;;;10.96;68.71;100228.53;7793261;32;37608;-90
2022/11/09 01:30:26;;;;;;;36.53;18.35;;;;;;;10.91;68.73;100228.50;7779293;32;38519;-89
2022/11/09 01:34:42;;;;;;;38.92;18.35;;;;;;;10.73;69.40;100216.13;7793131;32;40688;-90
2022/11/09 01:38:59;;;;;;;37.92;17.75;;;;;;;10.52;69.97;100216.00;7778908;32;37466;-88
2022/11/09 01:43:20;;;;;;;40.35;18.85;;;;;;;10.63;69.63;100210.63;7792884;32;36922;-89
2022/11/09 01:47:37;;;;;;;39.05;19.00;;;;;;;10.65;69.30;100206.53;7792489;32;39338;-89
2022/11/09 01:51:59;;;;;;;35.83;17.23;;;;;;;10.44;69.83;100199.28;7792368;32;41081;-90
2022/11/09 01:56:15;;;;;;;34.00;17.35;;;;;;;10.39;70.07;100191.88;7792898;32;37947;-89
2022/11/09 02:00:33;;;;;;;37.55;17.90;;;;;;;10.05;71.54;100204.91;7766232;32;37968;-89
2022/11/09 02:04:54;;;;;;;39.33;18.05;;;;;;;10.32;70.04;100183.13;7778976;32;39262;-89
2022/11/09 02:09:37;;;;;;;38.22;17.52;;;;;;;10.11;71.06;100203.91;7778287;32;39985;-89
2022/11/09 02:13:57;;;;;;;39.08;17.25;;;;;;;10.23;70.48;100190.09;7792639;32;38690;-89
2022/11/09 02:18:13;;;;;;;38.03;17.55;;;;;;;10.56;69.33;100189.03;7778564;32;37731;-89
2022/11/09 02:22:29;;;;;;;35.17;18.50;;;;;;;10.41;69.54;100180.72;7778605;32;40316;-89
2022/11/09 02:26:49;;;;;;;40.42;17.30;;;;;;;9.83;71.16;100194.06;7778579;32;40084;-89
2022/11/09 02:31:07;;;;;;;35.70;18.52;;;;;;;10.59;69.14;100190.38;7778694;32;37728;-89
2022/11/09 02:35:23;;;;;;;38.63;17.90;;;;;;;10.21;70.15;100192.25;7778828;32;38370;-89
2022/11/09 02:39:39;;;;;;;39.10;17.80;;;;;;;10.40;69.89;100179.91;7792316;32;39311;-89
2022/11/09 02:43:56;;;;;;;38.40;18.25;;;;;;;10.32;70.58;100177.66;7791681;32;40659;-88
2022/11/09 02:48:12;;;;;;;36.17;17.67;;;;;;;10.13;71.22;100190.84;7778203;32;37985;-88
2022/11/09 02:52:28;;;;;;;38.00;17.20;;;;;;;10.33;70.27;100190.19;7792069;32;37402;-89
2022/11/09 02:56:45;;;;;;;40.50;17.73;;;;;;;10.42;69.83;100185.94;7792273;32;39332;-88
2022/11/09 03:01:01;;;;;;;34.90;16.52;;;;;;;10.30;70.20;100187.97;7792073;32;39697;-88
2022/11/09 03:05:17;;;;;;;40.25;17.37;;;;;;;10.11;70.67;100199.25;7791973;32;38026;-88
2022/11/09 03:09:33;;;;;;;37.55;17.67;;;;;;;10.10;71.31;100196.78;7791733;32;38029;-88
2022/11/09 03:13:49;;;;;;;40.50;18.98;;;;;;;10.36;70.44;100195.12;7792002;32;40140;-88
2022/11/09 03:18:05;;;;;;;36.70;18.80;;;;;;;10.15;71.07;100200.38;7791499;32;39891;-88
2022/11/09 03:22:21;;;;;;;34.05;17.67;;;;;;;10.40;69.36;100196.28;7791725;32;38773;-89
2022/11/09 03:26:38;;;;;;;37.85;18.12;;;;;;;10.69;68.83;100193.19;7791736;32;37158;-89
2022/11/09 03:30:54;;;;;;;41.70;20.30;;;;;;;10.29;69.95;100189.87;7791580;32;40106;-88
2022/11/09 03:35:10;;;;;;;37.58;17.35;;;;;;;10.39;69.92;100166.56;7791574;32;39998;-88
2022/11/09 03:39:26;;;;;;;43.15;19.48;;;;;;;10.69;68.65;100165.91;7776601;32;38015;-89
2022/11/09 03:43:42;;;;;;;38.40;18.25;;;;;;;10.84;68.11;100163.28;7777049;32;37212;-85
2022/11/09 03:47:59;;;;;;;44.33;18.48;;;;;;;10.45;68.87;100179.97;7791431;32;39216;-90
2022/11/09 03:52:15;;;;;;;37.97;18.52;;;;;;;10.74;68.50;100190.50;7791126;32;40914;-88
2022/11/09 03:56:31;;;;;;;36.97;17.08;;;;;;;10.36;69.39;100189.69;7791114;32;38181;-90
2022/11/09 04:00:47;;;;;;;35.35;17.67;;;;;;;10.43;69.53;100184.00;7777069;32;37965;-90
2022/11/09 04:05:04;;;;;;;39.08;18.50;;;;;;;10.72;68.90;100187.22;7790909;32;40262;-90
2022/11/09 04:09:20;;;;;;;40.42;17.25;;;;;;;10.51;69.39;100181.62;7776212;32;39929;-89
2022/11/09 04:13:36;;;;;;;39.60;18.77;;;;;;;10.37;69.83;100187.78;7790437;32;37903;-89
2022/11/09 04:17:57;;;;;;;39.17;19.50;;;;;;;10.91;67.90;100184.88;7790493;32;38126;-89
2022/11/09 04:22:13;;;;;;;40.30;19.80;;;;;;;10.60;68.59;100189.31;7790553;32;39088;-89
2022/11/09 04:26:29;;;;;;;39.95;18.23;;;;;;;10.71;68.57;100185.59;7776540;32;39942;-89
2022/11/09 04:30:45;;;;;;;38.03;18.85;;;;;;;10.56;68.92;100189.03;7791551;32;38989;-89
2022/11/09 04:35:01;;;;;;;36.42;17.45;;;;;;;10.85;67.91;100186.75;7779825;32;37151;-89
2022/11/09 04:39:17;;;;;;;41.40;19.33;;;;;;;10.53;68.76;100192.25;7793526;32;40096;-88
2022/11/09 04:43:34;;;;;;;40.88;19.60;;;;;;;10.82;67.69;100191.91;7793565;32;39919;-88
2022/11/09 04:47:50;;;;;;;42.08;19.20;;;;;;;10.68;68.16;100181.47;7793839;32;38081;-88
2022/11/09 04:52:07;;;;;;;45.25;19.70;;;;;;;10.79;67.80;100174.16;7793811;32;37761;-90
2022/11/09 04:56:23;;;;;;;39.90;19.40;;;;;;;10.50;68.35;100176.44;7793573;32;39809;-89
2022/11/09 05:00:39;;;;;;;39.63;19.45;;;;;;;10.57;68.45;100181.66;7793483;32;40585;-89
2022/11/09 05:04:55;;;;;;;41.35;18.10;;;;;;;10.51;68.69;100180.81;7779553;32;37939;-89
2022/11/09 05:09:11;;;;;;;35.85;17.87;;;;;;;10.76;67.56;100180.13;7792968;32;37151;-89
2022/11/09 05:13:27;;;;;;;33.97;16.20;;;;;;;10.51;68.24;100183.53;7779467;32;40028;-89
2022/11/09 05:17:44;;;;;;;38.92;18.30;;;;;;;10.71;67.97;100183.66;7793226;32;39977;-90
2022/11/09 05:23:57;;;;;;;35.03;17.40;;;;;;;10.41;68.99;100184.28;7793306;32;38805;-89
2022/11/09 05:26:40;;;;;;;37.35;16.52;;;;;;;10.75;67.47;100178.50;7781480;32;38164;-90
2022/11/09 05:30:56;;;;;;;32.75;15.93;;;;;;;10.77;67.45;100179.06;7793260;32;40005;-90
2022/11/09 05:35:13;;;;;;;32.00;14.98;;;;;;;10.80;67.57;100177.72;7793128;32;39713;-89
2022/11/09 05:39:29;;;;;;;32.60;15.50;;;;;;;10.68;67.61;100172.47;7793045;32;37683;-90
2022/11/09 05:43:45;;;;;;;36.13;16.12;;;;;;;10.68;67.52;100172.47;7792526;32;37239;-89
2022/11/09 05:48:03;;;;;;;29.92;15.02;;;;;;;10.42;68.25;100158.66;7778810;32;39224;-89
2022/11/09 05:52:19;;;;;;;33.60;16.00;;;;;;;10.33;68.61;100173.84;7792800;32;40818;-89
2022/11/09 05:56:35;;;;;;;30.98;15.13;;;;;;;10.26;69.19;100178.66;7777867;32;38066;-88
2022/11/09 06:00:51;;;;;;;29.92;15.43;;;;;;;10.21;69.03;100178.63;7792206;32;37415;-87
2022/11/09 06:05:08;;;;;;;33.03;15.88;;;;;;;10.33;68.67;100174.69;7792840;32;39610;-88
2022/11/09 06:09:24;;;;;;;32.58;14.52;;;;;;;10.11;69.61;100201.16;7792436;32;39995;-90
2022/11/09 06:13:40;;;;;;;32.97;14.87;;;;;;;9.97;71.25;100200.78;7797349;32;38078;-92
2022/11/09 06:17:57;;;;;;;28.83;14.10;;;;;;;10.04;70.61;100198.66;7793479;32;38178;-93
2022/11/09 06:22:13;;;;;;;28.95;14.45;;;;;;;10.30;70.09;100201.59;7792890;32;39225;-88
2022/11/09 06:26:29;;;;;;;31.40;14.55;;;;;;;9.70;71.00;100207.03;7792094;32;40281;-89
2022/11/09 06:30:45;;;;;;;27.83;13.88;;;;;;;10.19;69.47;100216.22;7792540;32;38043;-86
2022/11/09 06:35:02;;;;;;;28.60;14.02;;;;;;;10.27;69.35;100208.38;7792535;32;37133;-88
2022/11/09 06:39:18;;;;;;;30.08;13.45;;;;;;;10.04;70.08;100198.66;7792473;32;39256;-87
2022/11/09 06:43:34;;;;;;;29.85;13.90;;;;;;;9.99;69.83;100209.50;7792219;32;40000;-82
2022/11/09 06:47:53;;;;;;;34.30;14.85;;;;;;;10.32;73.21;100204.91;7775513;32;38097;-89
2022/11/09 06:52:09;;;;;;;31.12;14.32;;;;;;;10.57;70.92;100201.56;7791217;32;37239;-93
2022/11/09 06:56:25;;;;;;;28.30;13.35;;;;;;;10.55;68.77;100194.72;7792219;32;39436;-89
2022/11/09 07:00:43;;;;;;;28.90;14.25;;;;;;;10.30;69.39;100201.59;7792063;32;40814;-89
2022/11/09 07:04:59;;;;;;;31.52;13.95;;;;;;;10.57;68.38;100189.84;7777990;32;37814;-84
2022/11/09 07:09:15;;;;;;;31.80;14.35;;;;;;;10.51;68.03;100192.53;7791831;32;37510;-87
2022/11/09 07:13:31;;;;;;;29.50;13.62;;;;;;;10.36;69.17;100186.94;7791993;32;39615;-84
2022/11/09 07:17:47;;;;;;;28.35;12.88;;;;;;;10.38;69.02;100182.06;7790942;32;40812;-89
2022/11/09 07:22:03;;;;;;;31.65;12.93;;;;;;;10.48;68.39;100179.41;7790932;32;37808;-89
2022/11/09 07:26:19;;;;;;;25.00;12.50;;;;;;;10.52;68.55;100188.72;7791585;32;37870;-89
2022/11/09 07:30:36;;;;;;;26.00;12.25;;;;;;;10.39;68.67;100182.91;7791557;32;39937;-88
2022/11/09 07:34:52;;;;;;;26.45;13.02;;;;;;;10.44;68.64;100186.47;7791494;32;40991;-91
2022/11/09 07:39:08;;;;;;;27.95;13.27;;;;;;;10.48;68.50;100182.13;7791434;32;38160;-88
2022/11/09 07:43:24;;;;;;;26.42;12.13;;;;;;;10.55;68.54;100186.56;7790928;32;38230;-92
2022/11/09 07:47:40;;;;;;;27.27;12.98;;;;;;;10.51;68.52;100197.97;7778095;32;40110;-91
2022/11/09 07:51:56;;;;;;;28.35;12.73;;;;;;;10.58;68.59;100191.50;7791400;32;39880;-92
2022/11/09 07:56:13;;;;;;;28.23;13.18;;;;;;;10.56;68.90;100201.84;7791158;32;38551;-92
2022/11/09 08:00:30;;;;;;;23.83;11.50;;;;;;;10.55;68.65;100197.47;7776915;32;36889;-91
2022/11/09 08:04:46;;;;;;;21.90;10.98;;;;;;;10.82;67.87;100195.47;7765436;32;40428;-87
2022/11/09 08:09:03;;;;;;;22.62;11.65;;;;;;;10.70;68.08;100195.66;7784985;32;39629;-87
2022/11/09 08:13:19;;;;;;;28.92;12.90;;;;;;;10.51;68.97;100187.06;7793219;32;38833;-85
2022/11/09 08:17:36;;;;;;;28.08;11.82;;;;;;;10.78;68.07;100186.16;7794201;32;37359;-86
2022/11/09 08:21:56;;;;;;;28.67;12.90;;;;;;;10.95;67.29;100183.28;7793958;32;39389;-84
2022/11/09 08:26:12;;;;;;;25.67;12.18;;;;;;;10.74;68.21;100189.69;7794129;32;39910;-85
2022/11/09 08:30:29;;;;;;;26.02;12.37;;;;;;;10.79;67.46;100187.00;7793883;32;38041;-87
2022/11/09 08:34:48;;;;;;;27.30;11.25;;;;;;;11.15;66.39;100185.25;7793925;32;37270;-83
2022/11/09 08:39:04;;;;;;;22.92;12.35;;;;;;;10.98;72.38;100195.56;7793839;32;40012;-85
2022/11/09 08:43:20;;;;;;;25.48;12.02;;;;;;;10.90;67.84;100199.63;7792880;32;39635;-89
2022/11/09 08:47:40;;;;;;;27.10;12.32;;;;;;;11.00;66.39;100199.63;7793949;32;37680;-88
2022/11/09 08:51:56;;;;;;;27.00;12.52;;;;;;;11.34;65.83;100195.72;7793362;32;37908;-88
2022/11/09 08:56:17;;;;;;;29.42;13.20;;;;;;;11.16;66.23;100186.91;7794104;32;38998;-88
2022/11/09 09:00:33;;;;;;;26.45;13.80;;;;;;;10.65;68.03;100197.53;7780150;32;39685;-88
2022/11/09 09:04:49;;;;;;;30.23;13.13;;;;;;;10.85;67.63;100192.22;7779543;32;38908;-88
2022/11/09 09:09:05;;;;;;;31.52;14.40;;;;;;;11.05;66.92;100199.66;7778841;32;37214;-90
2022/11/09 09:13:22;;;;;;;32.45;14.35;;;;;;;10.86;67.72;100199.28;7793596;32;39253;-89
2022/11/09 09:17:38;;;;;;;30.27;13.88;;;;;;;10.79;68.03;100195.16;7779037;32;40837;-88
2022/11/09 09:21:54;;;;;;;37.85;15.10;;;;;;;10.83;67.86;100199.84;7792697;32;38058;-88
2022/11/09 09:26:10;;;;;;;29.58;13.52;;;;;;;10.27;70.11;100213.84;7765774;32;36940;-88
2022/11/09 09:30:27;;;;;;;28.65;12.93;;;;;;;10.85;68.03;100211.31;7793230;32;39332;-89
2022/11/09 09:34:43;;;;;;;32.28;14.02;;;;;;;10.81;68.13;100199.25;7793204;32;40595;-88
2022/11/09 09:38:59;;;;;;;34.45;15.02;;;;;;;10.90;67.89;100208.59;7792616;32;37816;-89
2022/11/09 09:43:23;;;;;;;32.42;14.48;;;;;;;10.62;69.04;100196.13;7776575;32;37151;-90
2022/11/09 09:47:57;;;;;;;32.53;13.95;;;;;;;10.84;68.22;100198.75;7779538;32;39393;-90
2022/11/09 09:52:35;;;;;;;27.80;13.75;;;;;;;10.77;68.78;100184.53;7779809;32;40889;-90
2022/11/09 09:56:54;;;;;;;32.20;14.95;;;;;;;10.65;69.50;100186.63;7792114;32;37768;-89
2022/11/09 10:01:21;;;;;;;34.35;14.98;;;;;;;10.74;68.97;100184.22;7764627;32;37498;-89
2022/11/09 10:06:02;;;;;;;38.72;15.18;;;;;;;10.59;69.92;100184.94;7781473;32;39300;-89
2022/11/09 10:10:30;;;;;;;32.03;14.57;;;;;;;10.38;70.56;100179.34;7770614;32;39641;-88
2022/11/09 10:15:15;;;;;;;36.22;15.52;;;;;;;10.59;70.32;100174.03;7791939;32;38774;-87
2022/11/09 10:19:50;;;;;;;37.45;15.80;;;;;;;10.62;70.08;100170.78;7764251;32;37003;-89
2022/11/09 10:24:25;;;;;;;40.88;16.75;;;;;;;10.52;71.46;100161.47;7756870;32;38864;-87
2022/11/09 10:28:43;;;;;;;38.15;17.02;;;;;;;10.69;70.42;100171.38;7769262;32;40622;-86
2022/11/09 10:33:20;;;;;;;36.67;16.80;;;;;;;10.37;71.98;100158.63;7787746;32;38093;-88
2022/11/09 10:37:41;;;;;;;40.80;17.05;;;;;;;10.71;70.02;100159.13;7790888;32;36879;-90
2022/11/09 10:41:57;;;;;;;41.10;17.42;;;;;;;10.77;69.59;100149.06;7790757;32;39587;-89
2022/11/09 10:46:14;;;;;;;42.47;16.98;;;;;;;10.73;70.23;100153.41;7776740;32;39840;-89
2022/11/09 10:50:45;;;;;;;44.25;17.60;;;;;;;11.13;68.87;100134.78;7775647;32;37953;-88
2022/11/09 10:55:26;;;;;;;39.95;17.23;;;;;;;11.14;68.70;100134.53;7791979;32;37035;-87
2022/11/09 10:59:56;;;;;;;40.42;17.90;;;;;;;11.10;69.12;100138.84;7778219;32;39270;-86
2022/11/09 11:04:22;;;;;;;40.80;17.98;;;;;;;11.23;68.75;100126.62;7791555;32;40891;-88
2022/11/09 11:09:12;;;;;;;41.05;18.62;;;;;;;11.07;69.36;100128.47;7769350;32;38801;-87
2022/11/09 11:13:28;;;;;;;46.95;19.98;;;;;;;11.13;69.16;100127.41;7778917;32;37271;-86
2022/11/09 11:17:44;;;;;;;54.67;20.42;;;;;;;10.75;70.17;100120.44;7776325;32;39345;-89
2022/11/09 11:22:13;;;;;;;48.40;20.30;;;;;;;10.38;72.20;100127.56;7765219;32;39845;-91
2022/11/09 11:26:56;;;;;;;50.70;19.08;;;;;;;10.96;70.02;100121.34;7780376;32;321455;-89
2022/11/09 11:31:17;;;;;;;50.03;20.17;;;;;;;11.16;69.38;100126.88;7777080;32;38215;-89
2022/11/09 11:35:44;;;;;;;54.47;21.45;;;;;;;11.04;69.74;100129.03;7785932;32;39327;-90
2022/11/09 11:40:26;;;;;;;58.17;23.17;;;;;;;10.86;70.81;100122.91;7774300;32;39543;-90
2022/11/09 11:44:52;;;;;;;58.25;22.45;;;;;;;10.99;69.98;100123.53;7785611;32;37561;-88
2022/11/09 11:49:46;;;;;;;51.20;22.02;;;;;;;10.72;71.37;100119.03;7790897;32;37163;-89
2022/11/09 11:54:20;;;;;;;59.33;22.20;;;;;;;11.10;69.87;100117.03;7791407;32;39865;-90
2022/11/09 11:59:01;;;;;;;50.78;22.83;;;;;;;10.89;70.73;100113.41;7778797;32;40548;-89
2022/11/09 12:03:38;;;;;;;54.72;22.83;;;;;;;11.00;70.09;100106.06;7790998;32;38720;-88
2022/11/09 12:08:24;;;;;;;62.30;22.83;;;;;;;11.14;70.10;100096.31;7791092;32;37899;-90
2022/11/09 12:13:08;;;;;;;58.35;22.92;;;;;;;11.16;70.16;100094.13;7780219;32;39630;-89
2022/11/09 12:18:04;;;;;;;54.63;22.90;;;;;;;11.02;70.69;100088.37;7790844;32;40696;-89
2022/11/09 12:22:38;;;;;;;49.05;23.02;;;;;;;10.83;71.30;100096.19;7778805;32;38535;-89
2022/11/09 12:27:16;;;;;;;59.08;23.70;;;;;;;11.07;70.53;100102.03;7790705;32;37154;-89
2022/11/09 12:32:02;;;;;;;60.22;23.95;;;;;;;10.97;70.88;100106.59;7790557;32;39956;-89
2022/11/09 12:36:26;;;;;;;53.47;22.87;;;;;;;11.25;69.94;100097.97;7790272;32;39850;-90
2022/11/09 12:40:47;;;;;;;63.63;24.60;;;;;;;11.23;70.01;100093.88;7790082;32;38754;-89
2022/11/09 12:45:22;;;;;;;55.35;24.85;;;;;;;11.40;69.45;100089.00;7763705;32;37214;-89
2022/11/09 12:49:39;;;;;;;60.30;23.92;;;;;;;10.82;71.32;100089.09;7776938;32;39971;-89
2022/11/09 12:53:57;;;;;;;56.15;24.95;;;;;;;11.26;70.29;100077.78;7793291;32;40796;-89
2022/11/09 12:58:30;;;;;;;54.58;24.20;;;;;;;11.41;70.01;100076.19;7793588;32;38499;-89
2022/11/09 13:02:55;;;;;;;58.78;24.00;;;;;;;11.62;69.51;100079.75;7793551;32;38166;-89
2022/11/09 13:07:27;;;;;;;59.78;25.50;;;;;;;11.76;68.77;100083.59;7793556;32;40008;-89
2022/11/09 13:11:48;;;;;;;67.20;26.02;;;;;;;11.81;68.55;100071.84;7793493;32;40029;-89
2022/11/09 13:16:18;;;;;;;61.90;25.37;;;;;;;11.22;70.35;100068.50;7793468;32;37681;-89
2022/11/09 13:20:35;;;;;;;53.97;24.77;;;;;;;11.82;68.37;100066.09;7793448;32;36927;-89
2022/11/09 13:25:46;;;;;;;55.78;26.17;;;;;;;12.09;67.72;100061.47;7792922;32;39438;-89
2022/11/09 13:30:27;;;;;;;62.62;27.23;;;;;;;11.83;68.16;100072.38;7793308;32;40018;-89
2022/11/09 13:34:54;;;;;;;58.65;25.65;;;;;;;11.82;68.48;100068.03;7793007;32;38869;-89
2022/11/09 13:39:26;;;;;;;57.45;24.33;;;;;;;12.01;67.79;100068.31;7793250;32;37960;-89
2022/11/09 13:43:43;;;;;;;57.35;26.65;;;;;;;11.87;68.24;100070.75;7792859;32;39898;-89
2022/11/09 13:47:59;;;;;;;64.05;28.38;;;;;;;11.91;67.91;100065.59;7779180;32;39681;-89
2022/11/09 13:52:52;;;;;;;57.67;25.27;;;;;;;11.70;68.59;100064.75;7792990;32;38066;-89
2022/11/09 13:57:09;;;;;;;62.55;26.87;;;;;;;11.98;67.88;100061.47;7792969;32;37258;-89
2022/11/09 14:01:52;;;;;;;64.18;27.35;;;;;;;11.60;68.91;100071.00;7778701;32;39262;-88
2022/11/09 14:06:11;;;;;;;59.55;27.95;;;;;;;11.90;68.12;100069.38;7781092;32;39609;-89
2022/11/09 14:10:39;;;;;;;62.67;25.88;;;;;;;11.83;68.40;100061.44;7779047;32;37321;-89
2022/11/09 14:15:17;;;;;;;61.15;28.50;;;;;;;11.78;68.68;100077.84;7792868;32;37301;-89
2022/11/09 14:20:01;;;;;;;56.55;26.83;;;;;;;11.83;68.57;100067.75;7792768;32;39902;-89
2022/11/09 14:24:23;;;;;;;66.78;27.77;;;;;;;11.86;68.55;100068.28;7792630;32;39694;-89
2022/11/09 14:28:40;;;;;;;65.37;27.93;;;;;;;11.69;68.66;100074.84;7792756;32;37877;-89
2022/11/09 14:32:57;;;;;;;61.30;26.77;;;;;;;11.70;68.78;100068.28;7792549;32;37518;-89
2022/11/09 14:37:14;;;;;;;57.17;27.23;;;;;;;11.92;68.18;100062.59;7779268;32;39238;-89
2022/11/09 14:41:30;;;;;;;64.60;28.80;;;;;;;11.70;68.51;100070.22;7778495;32;40113;-88
2022/11/09 14:45:52;;;;;;;65.35;28.98;;;;;;;11.99;68.04;100063.13;7792276;32;37654;-90
2022/11/09 14:50:14;;;;;;;65.47;28.58;;;;;;;11.81;68.54;100064.47;7778618;32;37898;-89
2022/11/09 14:54:31;;;;;;;69.33;29.30;;;;;;;11.47;69.80;100066.91;7779050;32;40421;-89
2022/11/09 14:58:48;;;;;;;69.97;29.35;;;;;;;11.47;70.17;100066.91;7778433;32;39622;-89
2022/11/09 15:03:24;;;;;;;71.28;29.12;;;;;;;11.75;69.03;100062.84;7792053;32;38637;-89
2022/11/09 15:07:44;;;;;;;74.85;31.30;;;;;;;11.65;69.25;100063.63;7792063;32;37107;-88
2022/11/09 15:12:01;;;;;;;77.50;30.35;;;;;;;11.84;69.07;100061.19;7792055;32;39281;-89
2022/11/09 15:16:25;;;;;;;71.15;29.42;;;;;;;11.65;69.52;100066.38;7777519;32;40830;-89
2022/11/09 15:20:41;;;;;;;65.25;29.73;;;;;;;11.66;69.76;100061.75;7791844;32;37950;-89
2022/11/09 15:24:58;;;;;;;74.18;31.75;;;;;;;11.81;69.27;100069.09;7778015;32;37211;-89
2022/11/09 15:29:30;;;;;;;76.70;30.58;;;;;;;11.73;69.29;100064.19;7791821;32;40081;-89
2022/11/09 15:33:52;;;;;;;70.57;30.27;;;;;;;11.65;69.79;100052.72;7778294;32;40770;-89
2022/11/09 15:38:32;;;;;;;72.40;29.52;;;;;;;11.15;71.60;100067.94;7777835;32;38106;-89
2022/11/09 15:42:49;;;;;;;66.75;31.40;;;;;;;11.37;71.28;100064.16;7791578;32;36924;-90
2022/11/09 15:47:22;;;;;;;77.20;31.37;;;;;;;11.51;70.52;100068.00;7777510;32;38064;-89
2022/11/09 15:51:39;;;;;;;;;;;;;;;11.39;71.15;100064.72;7778905;32;39847;-89
2022/11/09 15:55:55;;;;;;;75.80;29.80;;;;;;;11.59;70.57;100067.47;7791518;32;38082;-89
2022/11/09 16:00:13;;;;;;;67.85;30.17;;;;;;;11.57;70.66;100066.09;7791476;32;37521;-89
2022/11/09 16:04:35;;;;;;;77.30;31.23;;;;;;;11.57;70.75;100071.56;7791197;32;39243;-90
2022/11/09 16:08:52;;;;;;;73.18;31.15;;;;;;;11.59;70.67;100070.19;7791956;32;40941;-89
2022/11/09 16:13:09;;;;;;;66.70;30.05;;;;;;;11.90;69.90;100069.38;7792203;32;38971;-89
2022/11/09 16:17:25;;;;;;;70.90;30.23;;;;;;;11.55;70.78;100074.56;7777976;32;37224;-90
2022/11/09 16:21:42;;;;;;;72.43;29.10;;;;;;;11.85;70.00;100067.50;7790656;32;40008;-90
2022/11/09 16:25:58;;;;;;;75.68;31.87;;;;;;;11.89;69.63;100076.75;7777264;32;40840;-88
2022/11/09 16:30:15;;;;;;;77.47;30.08;;;;;;;11.68;70.67;100083.31;7794024;32;37983;-89
2022/11/09 16:34:31;;;;;;;73.50;30.85;;;;;;;11.57;70.84;100077.84;7780165;32;36976;-89
2022/11/09 16:38:52;;;;;;;76.28;32.85;;;;;;;12.03;69.46;100074.31;7793932;32;40075;-89
2022/11/09 16:43:08;;;;;;;88.78;32.67;;;;;;;11.52;71.48;100080.56;7779855;32;40714;-90
2022/11/09 16:47:26;;;;;;;84.15;32.22;;;;;;;11.72;70.58;100076.22;7793857;32;37701;-90
2022/11/09 16:51:42;;;;;;;74.15;32.60;;;;;;;11.77;70.67;100082.50;7793794;32;37097;-89
2022/11/09 16:55:58;;;;;;;72.75;32.08;;;;;;;11.62;71.13;100080.59;7779789;32;39984;-90
2022/11/09 17:00:18;;;;;;;82.03;33.35;;;;;;;11.60;71.29;100085.47;7779795;32;40525;-89
2022/11/09 17:04:34;;;;;;;75.93;32.28;;;;;;;11.69;70.78;100083.03;7779979;32;38680;-89
2022/11/09 17:08:54;;;;;;;69.30;31.87;;;;;;;11.93;69.81;100080.59;7767021;32;37930;-90
2022/11/09 17:13:11;;;;;;;82.40;33.15;;;;;;;11.56;70.44;100076.19;7780103;32;39348;-90
2022/11/09 17:17:27;;;;;;;72.03;31.50;;;;;;;11.84;69.93;100076.75;7780012;32;39849;-89
2022/11/09 17:21:43;;;;;;;73.95;31.75;;;;;;;11.47;70.91;100075.09;7793278;32;38177;-89
2022/11/09 17:26:05;;;;;;;70.93;31.83;;;;;;;11.62;70.53;100077.84;7793353;32;37493;-90
2022/11/09 17:30:23;;;;;;;74.78;28.65;;;;;;;11.46;71.07;100092.56;7793553;32;39267;-89
2022/11/09 17:34:39;;;;;;;72.65;29.70;;;;;;;11.68;70.34;100094.25;7793279;32;39676;-89
2022/11/09 17:38:55;;;;;;;75.72;31.70;;;;;;;11.63;70.49;100093.12;7779067;32;37992;-90
2022/11/09 17:43:12;;;;;;;77.35;30.17;;;;;;;11.86;69.59;100092.88;7792939;32;38218;-89
2022/11/09 17:47:28;;;;;;;67.15;28.62;;;;;;;11.67;69.78;100087.13;7793393;32;39104;-89
2022/11/09 17:51:45;;;;;;;68.10;29.98;;;;;;;11.80;69.63;100084.69;7779124;32;39942;-90
2022/11/09 17:56:02;;;;;;;69.20;29.80;;;;;;;12.06;68.74;100086.62;7793102;32;38623;-89
2022/11/09 18:00:19;;;;;;;82.88;33.03;;;;;;;11.87;69.17;100087.16;7779230;32;37177;-90
2022/11/09 18:04:36;;;;;;;73.97;31.00;;;;;;;11.84;69.62;100074.03;7778926;32;39952;-89
2022/11/09 18:08:52;;;;;;;71.85;30.10;;;;;;;11.99;69.01;100075.97;7793096;32;39945;-89
2022/11/09 18:13:29;;;;;;;72.37;30.70;;;;;;;11.59;70.39;100072.94;7792374;32;38100;-89
2022/11/09 18:17:45;;;;;;;75.85;29.95;;;;;;;11.67;69.97;100078.94;7778902;32;37852;-90
2022/11/09 18:22:01;;;;;;;69.95;31.10;;;;;;;11.87;69.55;100075.41;7778929;32;39529;-90
2022/11/09 18:26:19;;;;;;;73.40;30.05;;;;;;;11.92;69.08;100078.97;7792821;32;38883;-89
2022/11/09 18:30:40;;;;;;;71.07;29.35;;;;;;;11.67;70.01;100087.13;7779157;32;38671;-90
2022/11/09 18:34:56;;;;;;;81.63;32.05;;;;;;;11.74;69.73;100085.75;7792766;32;37133;-90
2022/11/09 18:39:13;;;;;;;79.57;32.25;;;;;;;11.85;69.41;100072.94;7778810;32;39761;-89
2022/11/09 18:43:29;;;;;;;83.62;31.77;;;;;;;12.15;68.45;100071.31;7792308;32;40699;-90
2022/11/09 18:47:48;;;;;;;78.22;33.05;;;;;;;11.92;68.96;100068.06;7765379;32;38773;-90
2022/11/09 18:52:04;;;;;;;91.10;35.40;;;;;;;12.15;68.33;100082.25;7778493;32;37402;-89
2022/11/09 18:56:23;;;;;;;76.28;31.90;;;;;;;12.00;68.95;100069.41;7778668;32;39258;-89
2022/11/09 19:00:40;;;;;;;75.12;32.38;;;;;;;11.83;69.63;100075.09;7778580;32;40719;-90
2022/11/09 19:04:57;;;;;;;78.03;32.13;;;;;;;11.88;69.34;100077.84;7777884;32;38050;-85
2022/11/09 19:09:29;;;;;;;79.37;30.85;;;;;;;11.85;69.55;100083.88;7790515;32;37530;-85
2022/11/09 19:13:45;;;;;;;83.10;31.83;;;;;;;11.62;70.22;100080.59;7785692;32;39262;-85
2022/11/09 19:18:01;;;;;;;73.78;30.75;;;;;;;11.97;68.93;100078.97;7791809;32;40013;-85
2022/11/09 19:22:18;;;;;;;75.10;31.12;;;;;;;11.50;70.69;100077.28;7777688;32;37216;-88
2022/11/09 19:26:35;;;;;;;72.32;30.65;;;;;;;11.76;69.95;100082.75;7777702;32;37190;-90
2022/11/09 19:30:51;;;;;;;78.60;31.73;;;;;;;11.94;69.21;100092.38;7791752;32;39886;-88
2022/11/09 19:35:08;;;;;;;68.55;30.50;;;;;;;11.97;69.08;100103.56;7791537;32;40761;-90
2022/11/09 19:39:24;;;;;;;70.18;30.08;;;;;;;11.81;69.57;100096.41;7791568;32;37989;-90
2022/11/09 19:43:49;;;;;;;72.32;29.90;;;;;;;11.90;69.63;100097.53;7791454;32;37042;-93